Pomona, Missouri
Current Conditions -  °F | °C
As of 2:53 AM on Wednesday 28 Jan 2015 (Local Time) from KUNO Reporting Station
Clear Clear  
Wind Chill: -2°   Ceiling: Unl
Heat Index:   Visibility: 10mi
Dew Point: -2°   Wind: 8mph
Humidity: 78%   Direction: 130°SE
Pressure: 30.19"   Gusts: NA
Location:  36.87°N, 91.91°W
Report Text: KUNO 280853Z AUTO 13007KT 10SM CLR 02/M02 A3019 RMK AO2 SLP224 T00171017 58003
Loading
Personal Weather Stations






























Interactive Weather Map New forecast layout! Learn more

10-Day Weather Forecast

Advertisements
Track Severe Weather on mobile